createdAt,value
2022-10-05T00:01:33.074Z,100831.31
2022-10-05T00:03:10.531Z,100831.28
2022-10-05T00:04:42.639Z,100820.97
2022-10-05T00:06:14.901Z,100830.44
2022-10-05T00:07:46.905Z,100820.94
2022-10-05T00:09:23.933Z,100819.22
2022-10-05T00:10:56.198Z,100827.81
2022-10-05T00:12:30.208Z,100830.38
2022-10-05T00:14:02.418Z,100826.09
2022-10-05T00:15:36.384Z,100823.47
2022-10-05T00:17:14.124Z,100825.16
2022-10-05T00:18:49.543Z,100825.16
2022-10-05T00:20:24.600Z,100834.66
2022-10-05T00:22:00.839Z,100831.19
2022-10-05T00:23:32.897Z,100831.19
2022-10-05T00:25:19.097Z,100832.91
2022-10-05T00:26:55.546Z,100827.72
2022-10-05T00:28:31.106Z,100826.88
2022-10-05T00:30:14.304Z,100832.88
2022-10-05T00:31:46.412Z,100832.88
2022-10-05T00:33:18.487Z,100832.00
2022-10-05T00:34:50.480Z,100834.56
2022-10-05T00:36:22.889Z,100833.66
2022-10-05T00:37:55.839Z,100834.50
2022-10-05T00:39:29.169Z,100833.63
2022-10-05T00:41:09.323Z,100832.78
2022-10-05T00:43:27.851Z,100835.38
2022-10-05T00:45:04.651Z,100837.06
2022-10-05T00:46:58.804Z,100834.50
2022-10-05T00:48:39.685Z,100841.38
2022-10-05T00:50:18.480Z,100843.09
2022-10-05T00:52:04.360Z,100838.78
2022-10-05T00:54:14.696Z,100853.41
2022-10-05T00:56:22.024Z,100854.28
2022-10-05T00:59:50.202Z,100859.47
2022-10-05T01:01:59.548Z,100861.16
2022-10-05T01:04:08.468Z,100873.22
2022-10-05T01:06:08.259Z,100874.06
2022-10-05T01:07:54.766Z,100873.22
2022-10-05T01:09:35.679Z,100876.63
2022-10-05T01:11:25.534Z,100878.38
2022-10-05T01:13:00.589Z,100876.56
2022-10-05T01:14:38.750Z,100880.03
2022-10-05T01:16:11.549Z,100886.03
2022-10-05T01:17:49.616Z,100889.47
2022-10-05T01:19:55.328Z,100889.47
2022-10-05T01:21:28.933Z,100896.34
2022-10-05T01:23:25.060Z,100893.75
2022-10-05T01:25:06.752Z,100893.66
2022-10-05T01:27:04.897Z,100882.47
2022-10-05T01:28:57.492Z,100890.19
2022-10-05T01:30:34.938Z,100896.16
2022-10-05T01:32:16.782Z,100892.69
2022-10-05T01:34:06.768Z,100891.81
2022-10-05T01:35:51.977Z,100893.56
2022-10-05T01:37:45.537Z,100891.03
2022-10-05T01:39:29.405Z,100884.94
2022-10-05T01:41:27.926Z,100896.13
2022-10-05T01:43:27.639Z,100897.78
2022-10-05T01:45:14.133Z,100895.13
2022-10-05T01:47:12.240Z,100896.03
2022-10-05T01:49:24.251Z,100889.19
2022-10-05T01:51:25.621Z,100889.09
2022-10-05T01:53:20.022Z,100889.06
2022-10-05T01:55:35.438Z,100900.28
2022-10-05T01:57:41.729Z,100892.56
2022-10-05T01:59:51.095Z,100898.63
2022-10-05T02:03:08.963Z,100894.38
2022-10-05T02:05:06.985Z,100903.00
2022-10-05T02:06:42.733Z,100907.31
2022-10-05T02:08:39.098Z,100903.88
2022-10-05T02:10:22.388Z,100907.28
2022-10-05T02:11:58.671Z,100909.81
2022-10-05T02:13:49.564Z,100902.94
2022-10-05T02:15:29.369Z,100900.41
2022-10-05T02:17:07.411Z,100903.75
2022-10-05T02:18:44.336Z,100912.34
2022-10-05T02:20:23.319Z,100903.69
2022-10-05T02:22:04.568Z,100910.53
2022-10-05T02:23:38.926Z,100913.91
2022-10-05T02:25:15.100Z,100914.75
2022-10-05T02:26:47.711Z,100919.03
2022-10-05T02:28:24.099Z,100910.41
2022-10-05T02:30:01.723Z,100914.69
2022-10-05T02:31:49.176Z,100915.53
2022-10-05T02:33:29.436Z,100906.06
2022-10-05T02:35:13.175Z,100909.53
2022-10-05T02:36:46.248Z,100913.72
2022-10-05T02:38:33.993Z,100916.41
2022-10-05T02:40:24.054Z,100914.69
2022-10-05T02:42:05.019Z,100919.88
2022-10-05T02:43:52.605Z,100924.16
2022-10-05T02:45:52.899Z,100928.50
2022-10-05T02:47:44.622Z,100933.69
2022-10-05T02:49:46.685Z,100933.69
2022-10-05T02:51:27.579Z,100938.00
2022-10-05T02:52:59.910Z,100939.69
2022-10-05T02:55:01.127Z,100941.44
2022-10-05T02:56:45.126Z,100937.09
2022-10-05T02:58:23.410Z,100943.09
2022-10-05T03:00:09.158Z,100935.34
2022-10-05T03:01:51.274Z,100943.91
2022-10-05T03:04:10.403Z,100938.69
2022-10-05T03:07:24.456Z,100948.91
2022-10-05T03:09:06.022Z,100952.34
2022-10-05T03:11:01.738Z,100955.78
2022-10-05T03:12:52.669Z,100960.88
2022-10-05T03:14:34.051Z,100950.50
2022-10-05T03:16:49.183Z,100947.00
2022-10-05T03:18:41.237Z,100946.06
2022-10-05T03:20:31.839Z,100949.41
2022-10-05T03:22:18.939Z,100944.25
2022-10-05T03:24:24.166Z,100948.47
2022-10-05T03:26:14.854Z,100950.13
2022-10-05T03:27:59.058Z,100959.56
2022-10-05T03:29:42.505Z,100949.25
2022-10-05T03:31:29.250Z,100959.56
2022-10-05T03:33:17.376Z,100960.38
2022-10-05T03:34:56.829Z,100965.53
2022-10-05T03:36:48.993Z,100968.16
2022-10-05T03:38:29.976Z,100972.41
2022-10-05T03:40:24.554Z,100969.84
2022-10-05T03:42:20.794Z,100980.28
2022-10-05T03:44:20.121Z,100970.94
2022-10-05T03:46:21.107Z,100982.19
2022-10-05T03:48:06.473Z,100983.13
2022-10-05T03:49:58.238Z,100984.81
2022-10-05T03:51:39.992Z,100988.34
2022-10-05T03:53:51.492Z,100992.66
2022-10-05T03:55:48.135Z,100997.84
2022-10-05T03:57:33.904Z,100999.59
2022-10-05T03:59:15.005Z,100998.72
2022-10-05T04:00:50.238Z,100995.28
2022-10-05T04:02:26.942Z,101004.66
2022-10-05T04:04:04.422Z,101001.22
2022-10-05T04:05:44.061Z,101002.09
2022-10-05T04:07:28.239Z,101004.69
2022-10-05T04:09:07.870Z,101000.31
2022-10-05T04:10:52.529Z,101009.69
2022-10-05T04:12:26.135Z,101005.28
2022-10-05T04:14:24.349Z,101011.22
2022-10-05T04:17:41.358Z,101017.88
2022-10-05T04:19:26.546Z,101020.41
2022-10-05T04:21:04.021Z,101017.72
2022-10-05T04:22:39.095Z,101018.44
2022-10-05T04:24:18.517Z,101021.06
2022-10-05T04:25:58.300Z,101015.88
2022-10-05T04:27:53.478Z,101021.13
2022-10-05T04:29:47.121Z,101023.75
2022-10-05T04:31:55.189Z,101025.56
2022-10-05T04:33:27.951Z,101028.94
2022-10-05T04:35:27.492Z,101033.19
2022-10-05T04:37:04.226Z,101038.25
2022-10-05T04:39:03.753Z,101042.53
2022-10-05T04:40:44.553Z,101040.72
2022-10-05T04:42:34.345Z,101045.06
2022-10-05T04:44:21.352Z,101045.91
2022-10-05T04:46:38.022Z,101047.75
2022-10-05T04:48:27.203Z,101048.56
2022-10-05T04:51:45.618Z,101051.97
2022-10-05T04:53:33.482Z,101057.19
2022-10-05T04:55:42.581Z,101058.06
2022-10-05T04:57:20.456Z,101061.41
2022-10-05T04:59:17.954Z,101047.69
2022-10-05T05:01:13.487Z,101054.59
2022-10-05T05:02:54.114Z,101049.44
2022-10-05T05:05:03.045Z,101056.31
2022-10-05T05:06:35.024Z,101062.28
2022-10-05T05:08:25.064Z,101066.69
2022-10-05T05:10:16.204Z,101067.53
2022-10-05T05:12:04.385Z,101066.00
2022-10-05T05:14:27.156Z,101067.00
2022-10-05T05:16:10.596Z,101072.25
2022-10-05T05:18:30.050Z,101076.63
2022-10-05T05:20:35.990Z,101061.22
2022-10-05T05:22:17.229Z,101069.91
2022-10-05T05:23:52.391Z,101062.19
2022-10-05T05:25:59.453Z,101069.22
2022-10-05T05:27:34.125Z,101070.94
2022-10-05T05:29:34.057Z,101073.63
2022-10-05T05:31:09.766Z,101072.00
2022-10-05T05:32:55.452Z,101067.03
2022-10-05T05:34:36.165Z,101076.63
2022-10-05T05:36:23.039Z,101076.78
2022-10-05T05:38:05.275Z,101079.47
2022-10-05T05:39:40.127Z,101079.59
2022-10-05T05:41:40.496Z,101080.56
2022-10-05T05:43:29.650Z,101072.06
2022-10-05T05:45:11.692Z,101079.94
2022-10-05T05:47:04.763Z,101073.97
2022-10-05T05:48:47.105Z,101086.16
2022-10-05T05:50:50.524Z,101081.94
2022-10-05T05:52:26.242Z,101087.22
2022-10-05T05:54:28.573Z,101081.31
2022-10-05T05:56:33.728Z,101089.13
2022-10-05T05:58:22.730Z,101090.94
2022-10-05T06:00:06.802Z,101088.41
2022-10-05T06:01:44.928Z,101091.91
2022-10-05T06:03:26.338Z,101086.78
2022-10-05T06:05:03.828Z,101088.53
2022-10-05T06:06:41.147Z,101086.84
2022-10-05T06:08:38.255Z,101092.94
2022-10-05T06:10:49.317Z,101097.25
2022-10-05T06:12:42.757Z,101093.81
2022-10-05T06:14:39.265Z,101099.84
2022-10-05T06:16:37.670Z,101103.38
2022-10-05T06:18:15.027Z,101101.63
2022-10-05T06:19:48.361Z,101112.00
2022-10-05T06:21:26.897Z,101114.59
2022-10-05T06:23:03.548Z,101113.72
2022-10-05T06:26:14.030Z,101122.34
2022-10-05T06:28:13.891Z,101121.44
2022-10-05T06:29:54.623Z,101120.56
2022-10-05T06:31:41.870Z,101124.03
2022-10-05T06:33:50.872Z,101131.78
2022-10-05T06:35:48.023Z,101132.63
2022-10-05T06:37:28.610Z,101129.13
2022-10-05T06:39:12.498Z,101137.78
2022-10-05T06:40:57.914Z,101140.31
2022-10-05T06:42:50.876Z,101142.00
2022-10-05T06:44:27.137Z,101136.78
2022-10-05T06:46:10.903Z,101143.69
2022-10-05T06:47:54.760Z,101141.03
2022-10-05T06:49:39.538Z,101131.50
2022-10-05T06:51:25.893Z,101150.47
2022-10-05T06:53:16.365Z,101137.44
2022-10-05T06:55:03.480Z,101136.56
2022-10-05T06:56:49.364Z,101136.50
2022-10-05T06:58:46.320Z,101134.69
2022-10-05T07:00:25.364Z,101135.53
2022-10-05T07:02:04.637Z,101120.78
2022-10-05T07:03:52.866Z,101136.28
2022-10-05T07:05:48.564Z,101128.41
2022-10-05T07:07:55.786Z,101128.34
2022-10-05T07:09:41.402Z,101122.13
2022-10-05T07:12:03.742Z,101118.56
2022-10-05T07:13:46.086Z,101118.50
2022-10-05T07:15:30.624Z,101116.66
2022-10-05T07:17:15.038Z,101113.94
2022-10-05T07:18:55.964Z,101118.19
2022-10-05T07:20:57.127Z,101120.66
2022-10-05T07:22:53.623Z,101126.66
2022-10-05T07:24:43.683Z,101114.41
2022-10-05T07:26:34.019Z,101139.53
2022-10-05T07:30:19.269Z,101134.25
2022-10-05T07:32:30.166Z,101141.84
2022-10-05T07:34:27.299Z,101138.28
2022-10-05T07:36:40.110Z,101139.91
2022-10-05T07:38:21.468Z,101144.19
2022-10-05T07:40:39.550Z,101137.13
2022-10-05T07:42:22.354Z,101144.84
2022-10-05T07:44:02.517Z,101149.06
2022-10-05T07:45:54.095Z,101141.16
2022-10-05T07:47:34.794Z,101141.97
2022-10-05T07:49:17.986Z,101142.78
2022-10-05T07:51:03.069Z,101150.53
2022-10-05T07:52:40.362Z,101159.97
2022-10-05T07:54:22.707Z,101152.06
2022-10-05T07:55:56.963Z,101158.13
2022-10-05T07:57:32.026Z,101161.56
2022-10-05T07:59:16.710Z,101159.63
2022-10-05T08:01:08.615Z,101155.22
2022-10-05T08:02:51.259Z,101161.25
2022-10-05T08:04:41.529Z,101158.66
2022-10-05T08:06:27.521Z,101159.50
2022-10-05T08:08:22.742Z,101157.66
2022-10-05T08:10:06.869Z,101158.50
2022-10-05T08:12:02.523Z,101155.84
2022-10-05T08:13:41.684Z,101156.59
2022-10-05T08:15:20.885Z,101160.03
2022-10-05T08:16:54.759Z,101156.47
2022-10-05T08:18:26.743Z,101159.06
2022-10-05T08:20:14.408Z,101164.09
2022-10-05T08:22:00.128Z,101164.03
2022-10-05T08:23:58.843Z,101153.47
2022-10-05T08:26:08.107Z,101160.31
2022-10-05T08:29:53.331Z,101161.84
2022-10-05T08:31:33.793Z,101160.00
2022-10-05T08:33:13.853Z,101156.44
2022-10-05T08:34:57.497Z,101158.38
2022-10-05T08:36:53.630Z,101152.22
2022-10-05T08:38:32.320Z,101152.97
2022-10-05T08:40:19.375Z,101150.31
2022-10-05T08:41:53.016Z,101146.81
2022-10-05T08:43:47.457Z,101154.53
2022-10-05T08:45:27.582Z,101148.31
2022-10-05T08:47:11.770Z,101152.59
2022-10-05T08:49:05.104Z,101148.13
2022-10-05T08:51:09.353Z,101150.72
2022-10-05T08:52:53.629Z,101148.94
2022-10-05T08:54:43.711Z,101151.41
2022-10-05T08:58:22.505Z,101137.22
2022-10-05T09:00:03.161Z,101145.78
2022-10-05T09:01:40.860Z,101149.25
2022-10-05T09:03:19.512Z,101149.28
2022-10-05T09:04:54.201Z,101148.31
2022-10-05T09:06:51.888Z,101154.13
2022-10-05T09:08:57.634Z,101157.41
2022-10-05T09:10:55.616Z,101157.22
2022-10-05T09:12:40.634Z,101152.84
2022-10-05T09:14:34.263Z,101155.31
2022-10-05T09:16:32.327Z,101156.94
2022-10-05T09:18:32.046Z,101154.09
2022-10-05T09:20:33.209Z,101148.72
2022-10-05T09:22:26.996Z,101149.50
2022-10-05T09:24:48.255Z,101151.81
2022-10-05T09:27:01.146Z,101148.25
2022-10-05T09:29:15.011Z,101145.53
2022-10-05T09:32:41.507Z,101145.16
2022-10-05T09:34:40.139Z,101137.97
2022-10-05T09:36:51.349Z,101144.88
2022-10-05T09:39:02.940Z,101149.97
2022-10-05T09:41:02.597Z,101140.16
2022-10-05T09:42:57.678Z,101148.78
2022-10-05T09:44:52.554Z,101143.44
2022-10-05T09:46:40.400Z,101146.06
2022-10-05T09:48:49.964Z,101131.03
2022-10-05T09:50:43.784Z,101140.56
2022-10-05T09:52:40.555Z,101135.50
2022-10-05T09:54:40.642Z,101141.91
2022-10-05T09:58:23.472Z,101140.75
2022-10-05T10:00:50.100Z,101141.88
2022-10-05T10:02:48.837Z,101148.06
2022-10-05T10:04:44.869Z,101149.53
2022-10-05T10:06:43.239Z,101150.13
2022-10-05T10:08:21.684Z,101149.72
2022-10-05T10:10:31.467Z,101151.88
2022-10-05T10:12:03.539Z,101144.72
2022-10-05T10:14:01.303Z,101140.41
2022-10-05T10:15:41.175Z,101139.75
2022-10-05T10:17:36.488Z,101154.69
2022-10-05T10:19:13.605Z,101154.09
2022-10-05T10:21:24.803Z,101148.91
2022-10-05T10:23:41.160Z,101146.31
2022-10-05T10:25:19.479Z,101148.13
2022-10-05T10:27:10.315Z,101145.31
2022-10-05T10:28:57.678Z,101149.59
2022-10-05T10:31:00.401Z,101127.38
2022-10-05T10:32:51.617Z,101132.41
2022-10-05T10:36:34.177Z,101128.16
2022-10-05T10:38:16.535Z,101138.59
2022-10-05T10:40:06.866Z,101130.56
2022-10-05T10:42:16.557Z,101126.78
2022-10-05T10:44:13.498Z,101124.84
2022-10-05T10:45:48.886Z,101115.06
2022-10-05T10:47:39.808Z,101120.31
2022-10-05T10:49:39.969Z,101112.16
2022-10-05T10:51:20.095Z,101119.25
2022-10-05T10:53:23.343Z,101111.34
2022-10-05T10:55:10.450Z,101104.53
2022-10-05T10:56:59.310Z,101101.00
2022-10-05T10:58:52.335Z,101101.66
2022-10-05T11:00:48.257Z,101095.31
2022-10-05T11:02:32.021Z,101094.44
2022-10-05T11:04:22.874Z,101103.78
2022-10-05T11:06:00.765Z,101098.22
2022-10-05T11:07:41.793Z,101091.16
2022-10-05T11:09:23.508Z,101083.84
2022-10-05T11:11:07.646Z,101089.00
2022-10-05T11:13:15.182Z,101086.56
2022-10-05T11:15:24.453Z,101080.66
2022-10-05T11:17:21.003Z,101079.97
2022-10-05T11:19:39.983Z,101085.22
2022-10-05T11:21:37.076Z,101076.25
2022-10-05T11:23:21.039Z,101084.19
2022-10-05T11:25:14.672Z,101074.50
2022-10-05T11:27:08.680Z,101069.06
2022-10-05T11:29:06.785Z,101073.31
2022-10-05T11:30:59.394Z,101073.31
2022-10-05T11:33:01.584Z,101075.63
2022-10-05T11:35:01.447Z,101068.28
2022-10-05T11:36:33.472Z,101073.25
2022-10-05T11:38:15.497Z,101066.88
2022-10-05T11:40:17.155Z,101069.50
2022-10-05T11:42:12.129Z,101071.03
2022-10-05T11:43:51.392Z,101065.91
2022-10-05T11:45:26.790Z,101069.09
2022-10-05T11:47:20.470Z,101071.81
2022-10-05T11:49:17.330Z,101075.47
2022-10-05T11:51:12.695Z,101077.16
2022-10-05T11:52:56.012Z,101079.28
2022-10-05T11:55:10.279Z,101076.69
2022-10-05T11:56:57.229Z,101069.19
2022-10-05T11:59:00.896Z,101070.13
2022-10-05T12:00:47.272Z,101064.59
2022-10-05T12:02:42.930Z,101070.44
2022-10-05T12:04:38.155Z,101070.22
2022-10-05T12:06:17.503Z,101078.03
2022-10-05T12:08:18.990Z,101069.09
2022-10-05T12:10:17.507Z,101077.66
2022-10-05T12:12:04.442Z,101070.31
2022-10-05T12:13:54.156Z,101069.94
2022-10-05T12:15:38.324Z,101072.34
2022-10-05T12:17:10.661Z,101064.38
2022-10-05T12:18:49.471Z,101073.06
2022-10-05T12:20:29.495Z,101066.84
2022-10-05T12:22:38.605Z,101066.69
2022-10-05T12:24:16.020Z,101067.88
2022-10-05T12:25:59.870Z,101068.56
2022-10-05T12:27:38.971Z,101061.94
2022-10-05T12:29:27.553Z,101057.31
2022-10-05T12:31:21.321Z,101058.09
2022-10-05T12:32:58.120Z,101051.81
2022-10-05T12:34:46.212Z,101048.44
2022-10-05T12:36:59.643Z,101048.44
2022-10-05T12:38:35.943Z,101050.78
2022-10-05T12:40:18.540Z,101042.75
2022-10-05T12:42:03.596Z,101039.72
2022-10-05T12:43:54.932Z,101050.59
2022-10-05T12:45:46.441Z,101050.56
2022-10-05T12:47:51.522Z,101050.44
2022-10-05T12:49:56.187Z,101049.91
2022-10-05T12:51:55.968Z,101051.06
2022-10-05T12:53:52.536Z,101051.88
2022-10-05T12:55:52.094Z,101048.38
2022-10-05T12:57:27.013Z,101045.63
2022-10-05T12:59:20.353Z,101044.25
2022-10-05T13:01:27.995Z,101040.16
2022-10-05T13:03:17.432Z,101045.59
2022-10-05T13:05:11.391Z,101040.69
2022-10-05T13:07:20.525Z,101041.50
2022-10-05T13:09:01.554Z,101030.53
2022-10-05T13:12:26.285Z,101030.91
2022-10-05T13:14:07.763Z,101034.81
2022-10-05T13:15:55.447Z,101031.91
2022-10-05T13:17:53.327Z,101026.56
2022-10-05T13:19:41.348Z,101024.91
2022-10-05T13:21:21.077Z,101018.81
2022-10-05T13:23:08.326Z,101021.69
2022-10-05T13:25:02.170Z,101014.44
2022-10-05T13:26:39.974Z,101023.31
2022-10-05T13:28:26.900Z,101021.78
2022-10-05T13:30:08.935Z,101025.72
2022-10-05T13:31:48.131Z,101028.72
2022-10-05T13:56:06.151Z,101010.22
2022-10-05T13:58:17.924Z,101008.44
2022-10-05T13:59:58.147Z,101007.78
2022-10-05T14:01:35.148Z,101000.00
2022-10-05T14:03:24.779Z,100998.41
2022-10-05T14:05:17.867Z,101008.16
2022-10-05T14:06:50.185Z,101008.34
2022-10-05T14:08:27.851Z,101004.88
2022-10-05T14:10:01.367Z,100996.38
2022-10-05T14:11:35.838Z,100999.66
2022-10-05T14:13:32.866Z,101001.25
2022-10-05T14:15:23.894Z,100997.78
2022-10-05T14:17:06.035Z,100997.25
2022-10-05T14:18:39.111Z,100996.31
2022-10-05T14:20:31.783Z,100994.41
2022-10-05T14:22:11.918Z,100997.78
2022-10-05T14:23:44.402Z,100990.13
2022-10-05T14:26:53.282Z,100990.88
2022-10-05T14:28:30.095Z,100982.38
2022-10-05T14:30:26.122Z,100989.28
2022-10-05T14:32:14.719Z,100987.63
2022-10-05T14:33:47.072Z,100984.34
2022-10-05T14:35:24.582Z,100993.91
2022-10-05T14:37:20.428Z,100992.97
2022-10-05T14:38:58.169Z,100992.31
2022-10-05T14:40:35.838Z,100989.69
2022-10-05T14:42:25.468Z,100989.78
2022-10-05T14:44:02.486Z,101002.13
2022-10-05T14:45:36.015Z,101000.50
2022-10-05T14:47:30.088Z,101003.16
2022-10-05T14:49:17.465Z,100995.25
2022-10-05T14:50:56.322Z,100990.91
2022-10-05T14:52:32.972Z,101000.59
2022-10-05T14:56:18.965Z,101005.97
2022-10-05T14:58:17.015Z,101004.47
2022-10-05T15:00:13.630Z,101009.81
2022-10-05T15:01:55.659Z,101013.47
2022-10-05T15:03:38.640Z,101012.78
2022-10-05T15:05:25.036Z,101015.59
2022-10-05T15:07:21.199Z,101020.16
2022-10-05T15:09:09.132Z,101022.06
2022-10-05T15:11:04.052Z,101018.84
2022-10-05T15:12:40.409Z,101013.75
2022-10-05T15:14:37.907Z,101017.31
2022-10-05T15:16:31.743Z,101017.59
2022-10-05T15:18:25.415Z,101023.06
2022-10-05T15:20:28.936Z,101024.09
2022-10-05T15:22:27.589Z,101019.09
2022-10-05T15:24:09.757Z,101023.66
2022-10-05T15:26:18.869Z,101020.38
2022-10-05T15:28:12.982Z,101020.63
2022-10-05T15:30:00.245Z,101020.06
2022-10-05T15:31:48.344Z,101028.97
2022-10-05T15:33:35.982Z,101029.25
2022-10-05T15:35:25.994Z,101026.69
2022-10-05T15:37:17.219Z,101035.50
2022-10-05T15:39:33.244Z,101033.16
2022-10-05T15:41:15.566Z,101036.97
2022-10-05T15:42:48.376Z,101033.06
2022-10-05T15:44:40.747Z,101035.81
2022-10-05T15:46:29.229Z,101040.56
2022-10-05T15:48:08.850Z,101038.25
2022-10-05T15:49:57.699Z,101035.75
2022-10-05T15:51:51.164Z,101044.72
2022-10-05T15:53:34.920Z,101043.25
2022-10-05T15:55:22.652Z,101056.66
2022-10-05T15:57:02.767Z,101053.50
2022-10-05T16:00:16.936Z,101059.28
2022-10-05T16:02:01.325Z,101062.16
2022-10-05T16:03:52.242Z,101063.28
2022-10-05T16:06:00.025Z,101065.16
2022-10-05T16:08:04.417Z,101065.38
2022-10-05T16:10:00.673Z,101063.72
2022-10-05T16:11:41.871Z,101061.34
2022-10-05T16:13:34.476Z,101067.53
2022-10-05T16:15:19.148Z,101068.66
2022-10-05T16:17:07.261Z,101067.25
2022-10-05T16:19:16.984Z,101070.31
2022-10-05T16:20:51.075Z,101063.69
2022-10-05T16:22:34.065Z,101072.63
2022-10-05T16:24:21.075Z,101076.31
2022-10-05T16:26:13.498Z,101079.97
2022-10-05T16:27:47.476Z,101081.16
2022-10-05T16:29:37.840Z,101086.50
2022-10-05T16:31:18.287Z,101078.00
2022-10-05T16:33:05.910Z,101083.41
2022-10-05T16:35:01.023Z,101087.88
2022-10-05T16:37:17.459Z,101087.13
2022-10-05T16:39:18.419Z,101089.72
2022-10-05T16:41:06.039Z,101094.13
2022-10-05T16:42:46.792Z,101086.41
2022-10-05T16:44:35.057Z,101095.09
2022-10-05T16:46:33.299Z,101091.72
2022-10-05T16:48:20.257Z,101092.72
2022-10-05T16:49:58.097Z,101094.53
2022-10-05T16:52:02.288Z,101097.22
2022-10-05T16:54:15.809Z,101096.41
2022-10-05T16:55:50.274Z,101105.16
2022-10-05T16:57:27.076Z,101096.63
2022-10-05T16:59:20.297Z,101097.47
2022-10-05T17:01:00.763Z,101097.63
2022-10-05T17:02:39.678Z,101105.53
2022-10-05T17:04:48.391Z,101109.09
2022-10-05T17:06:46.189Z,101116.13
2022-10-05T17:08:49.718Z,101110.13
2022-10-05T17:10:51.257Z,101112.78
2022-10-05T17:12:39.645Z,101119.75
2022-10-05T17:14:16.318Z,101119.88
2022-10-05T17:16:28.275Z,101120.78
2022-10-05T17:18:10.191Z,101122.63
2022-10-05T17:19:53.546Z,101119.22
2022-10-05T17:21:52.214Z,101116.69
2022-10-05T17:23:30.565Z,101134.88
2022-10-05T17:25:18.586Z,101128.00
2022-10-05T17:27:13.258Z,101133.22
2022-10-05T17:28:51.633Z,101133.22
2022-10-05T17:30:26.733Z,101133.25
2022-10-05T17:32:33.758Z,101141.94
2022-10-05T17:34:18.206Z,101136.75
2022-10-05T17:36:08.805Z,101141.09
2022-10-05T17:37:44.444Z,101141.97
2022-10-05T17:39:19.262Z,101145.50
2022-10-05T17:41:00.402Z,101138.59
2022-10-05T17:42:34.732Z,101140.34
2022-10-05T17:44:21.813Z,101143.78
2022-10-05T17:45:55.092Z,101145.56
2022-10-05T17:47:58.694Z,101138.66
2022-10-05T17:50:14.778Z,101148.19
2022-10-05T17:52:05.366Z,101155.13
2022-10-05T17:54:05.658Z,101156.88
2022-10-05T17:55:47.614Z,101154.31
2022-10-05T17:57:25.619Z,101161.22
2022-10-05T17:59:07.322Z,101158.66
2022-10-05T18:00:42.305Z,101157.78
2022-10-05T18:02:20.401Z,101162.13
2022-10-05T18:03:53.029Z,101158.66
2022-10-05T18:05:28.251Z,101159.53
2022-10-05T18:07:03.029Z,101156.94
2022-10-05T18:08:38.490Z,101156.94
2022-10-05T18:10:12.225Z,101158.66
2022-10-05T18:11:45.641Z,101161.25
2022-10-05T18:13:21.491Z,101154.34
2022-10-05T18:14:59.251Z,101152.63
2022-10-05T18:17:11.449Z,101157.78
2022-10-05T18:18:43.431Z,101162.13
2022-10-05T18:20:25.867Z,101161.25
2022-10-05T18:22:16.024Z,101154.31
2022-10-05T18:24:02.351Z,101157.78
2022-10-05T18:27:43.765Z,101170.75
2022-10-05T18:29:54.847Z,101168.19
2022-10-05T18:31:39.438Z,101165.59
2022-10-05T18:33:39.333Z,101168.16
2022-10-05T18:35:46.251Z,101173.34
2022-10-05T18:37:42.129Z,101174.19
2022-10-05T18:39:28.175Z,101169.03
2022-10-05T18:41:19.952Z,101168.97
2022-10-05T18:43:00.811Z,101173.28
2022-10-05T18:44:39.774Z,101168.94
2022-10-05T18:46:27.009Z,101168.94
2022-10-05T18:48:29.879Z,101166.34
2022-10-05T18:50:17.275Z,101178.41
2022-10-05T18:52:10.838Z,101174.09
2022-10-05T18:54:02.381Z,101177.53
2022-10-05T18:55:42.737Z,101178.41
2022-10-05T18:57:27.116Z,101187.91
2022-10-05T18:59:44.023Z,101186.19
2022-10-05T19:01:31.218Z,101181.00
2022-10-05T19:03:27.978Z,101183.59
2022-10-05T19:05:05.658Z,101184.47
2022-10-05T19:06:52.381Z,101189.63
2022-10-05T19:08:50.021Z,101179.28
2022-10-05T19:10:33.466Z,101177.56
2022-10-05T19:12:38.048Z,101178.41
2022-10-05T19:14:37.011Z,101179.31
2022-10-05T19:16:18.076Z,101185.31
2022-10-05T19:17:52.983Z,101194.81
2022-10-05T19:19:59.031Z,101191.34
2022-10-05T19:21:39.808Z,101187.88
2022-10-05T19:23:41.975Z,101188.72
2022-10-05T19:27:04.485Z,101195.63
2022-10-05T19:28:49.213Z,101194.75
2022-10-05T19:30:27.517Z,101200.78
2022-10-05T19:32:18.915Z,101192.16
2022-10-05T19:34:29.957Z,101199.03
2022-10-05T19:36:11.013Z,101207.66
2022-10-05T19:37:49.108Z,101204.22
2022-10-05T19:39:42.866Z,101212.00
2022-10-05T19:41:17.680Z,101202.50
2022-10-05T19:43:06.777Z,101213.69
2022-10-05T19:44:48.146Z,101214.53
2022-10-05T19:46:50.857Z,101215.38
2022-10-05T19:48:32.785Z,101216.22
2022-10-05T19:50:21.610Z,101211.06
2022-10-05T19:51:58.112Z,101215.34
2022-10-05T19:53:31.295Z,101220.50
2022-10-05T19:55:17.639Z,101215.31
2022-10-05T19:56:53.050Z,101217.00
2022-10-05T19:58:30.036Z,101216.13
2022-10-05T20:00:02.431Z,101225.59
2022-10-05T20:01:35.763Z,101224.69
2022-10-05T20:03:15.426Z,101220.41
2022-10-05T20:04:55.250Z,101226.44
2022-10-05T20:06:30.664Z,101221.25
2022-10-05T20:08:05.157Z,101229.03
2022-10-05T20:09:52.324Z,101228.16
2022-10-05T20:11:27.509Z,101228.16
2022-10-05T20:13:01.720Z,101227.28
2022-10-05T20:14:59.113Z,101227.28
2022-10-05T20:16:51.161Z,101228.97
2022-10-05T20:19:03.918Z,101223.81
2022-10-05T20:20:39.688Z,101228.94
2022-10-05T20:22:23.958Z,101228.06
2022-10-05T20:24:25.780Z,101217.72
2022-10-05T20:26:16.878Z,101227.13
2022-10-05T20:27:55.696Z,101221.97
2022-10-05T20:29:37.854Z,101224.53
2022-10-05T20:31:09.983Z,101219.38
2022-10-05T20:32:42.426Z,101220.22
2022-10-05T20:34:14.832Z,101221.06
2022-10-05T20:35:46.913Z,101226.25
2022-10-05T20:37:19.897Z,101221.06
2022-10-05T20:38:51.922Z,101221.91
2022-10-05T20:40:23.911Z,101220.16
2022-10-05T20:41:55.907Z,101212.41
2022-10-05T20:43:28.521Z,101214.09
2022-10-05T20:45:00.599Z,101208.94
2022-10-05T20:46:32.621Z,101221.03
2022-10-05T20:48:04.915Z,101216.75
2022-10-05T20:49:38.580Z,101222.75
2022-10-05T20:51:10.575Z,101216.69
2022-10-05T20:52:42.569Z,101221.84
2022-10-05T20:54:18.455Z,101219.22
2022-10-05T20:55:50.582Z,101216.63
2022-10-05T20:57:24.315Z,101219.16
2022-10-05T20:58:56.553Z,101220.84
2022-10-05T21:00:51.574Z,101220.84
2022-10-05T21:02:23.692Z,101220.81
2022-10-05T21:03:55.764Z,101222.56
2022-10-05T21:05:27.876Z,101226.00
2022-10-05T21:07:05.841Z,101218.22
2022-10-05T21:08:38.545Z,101218.19
2022-10-05T21:10:11.414Z,101219.03
2022-10-05T21:11:44.332Z,101220.72
2022-10-05T21:13:16.310Z,101218.09
2022-10-05T21:14:48.340Z,101220.72
2022-10-05T21:16:21.094Z,101221.56
2022-10-05T21:17:53.294Z,101225.88
2022-10-05T21:19:25.373Z,101223.28
2022-10-05T21:21:01.991Z,101218.97
2022-10-05T21:22:36.634Z,101224.13
2022-10-05T21:24:10.039Z,101216.38